Houma, Louisiana
Current Conditions -  °F | °C
As of 4:50 PM on Friday 31 Oct 2014 (Local Time) from KHUM Reporting Station
Clear Clear  
Wind Chill: 72°   Ceiling: Unl
Heat Index: 72°   Visibility: 7mi
Dew Point: 45°   Wind: 16mph
Humidity: 38%   Direction: 310°NW
Pressure: 30.04"   Gusts: NA
Location:  29.6°N, 90.72°W
Report Text: KHUM 312150Z 31014KT 7SM SKC 22/07 A3004 RMK ATIS X VA/RY36-RY12/30 CLSD...ST
Loading
Personal Weather Stations






























Interactive Weather Map New forecast layout! Learn more

10-Day Weather Forecast

Advertisements
Track Severe Weather on mobile